sensor_id;sensor_type;location;lat;lon;timestamp;P1;durP1;ratioP1;P2;durP2;ratioP2
11121;SDS011;5615;49.304;10.576;2023-05-07T00:02:13;9.07;;;8.17;;
11121;SDS011;5615;49.304;10.576;2023-05-07T00:04:40;8.67;;;7.87;;
11121;SDS011;5615;49.304;10.576;2023-05-07T00:07:06;12.63;;;7.90;;
11121;SDS011;5615;49.304;10.576;2023-05-07T00:09:33;7.90;;;7.10;;
11121;SDS011;5615;49.304;10.576;2023-05-07T00:12:01;9.00;;;7.53;;
11121;SDS011;5615;49.304;10.576;2023-05-07T00:14:28;8.50;;;7.63;;
11121;SDS011;5615;49.304;10.576;2023-05-07T00:16:54;9.80;;;7.77;;
11121;SDS011;5615;49.304;10.576;2023-05-07T00:19:21;11.70;;;8.37;;
11121;SDS011;5615;49.304;10.576;2023-05-07T00:21:48;9.70;;;8.70;;
11121;SDS011;5615;49.304;10.576;2023-05-07T00:24:14;11.77;;;7.77;;
11121;SDS011;5615;49.304;10.576;2023-05-07T00:26:41;8.73;;;7.93;;
11121;SDS011;5615;49.304;10.576;2023-05-07T00:29:09;9.13;;;8.23;;
11121;SDS011;5615;49.304;10.576;2023-05-07T00:31:35;10.37;;;7.37;;
11121;SDS011;5615;49.304;10.576;2023-05-07T00:34:02;8.27;;;7.40;;
11121;SDS011;5615;49.304;10.576;2023-05-07T00:36:29;10.37;;;7.07;;
11121;SDS011;5615;49.304;10.576;2023-05-07T00:38:56;7.37;;;6.70;;
11121;SDS011;5615;49.304;10.576;2023-05-07T00:41:25;7.60;;;6.87;;
11121;SDS011;5615;49.304;10.576;2023-05-07T00:43:51;8.17;;;7.37;;
11121;SDS011;5615;49.304;10.576;2023-05-07T00:46:20;7.73;;;6.80;;
11121;SDS011;5615;49.304;10.576;2023-05-07T00:48:47;8.40;;;7.47;;
11121;SDS011;5615;49.304;10.576;2023-05-07T00:51:14;8.43;;;7.57;;
11121;SDS011;5615;49.304;10.576;2023-05-07T00:53:42;7.13;;;6.47;;
11121;SDS011;5615;49.304;10.576;2023-05-07T00:56:08;9.90;;;6.80;;
11121;SDS011;5615;49.304;10.576;2023-05-07T00:58:36;8.30;;;6.77;;
11121;SDS011;5615;49.304;10.576;2023-05-07T01:01:02;7.20;;;6.50;;
11121;SDS011;5615;49.304;10.576;2023-05-07T01:03:30;7.33;;;6.63;;
11121;SDS011;5615;49.304;10.576;2023-05-07T01:05:57;6.77;;;6.17;;
11121;SDS011;5615;49.304;10.576;2023-05-07T01:08:26;8.33;;;6.90;;
11121;SDS011;5615;49.304;10.576;2023-05-07T01:10:54;7.40;;;6.70;;
11121;SDS011;5615;49.304;10.576;2023-05-07T01:13:21;7.47;;;6.67;;
11121;SDS011;5615;49.304;10.576;2023-05-07T01:15:49;9.50;;;6.80;;
11121;SDS011;5615;49.304;10.576;2023-05-07T01:18:16;7.63;;;6.43;;
11121;SDS011;5615;49.304;10.576;2023-05-07T01:20:44;7.87;;;6.70;;
11121;SDS011;5615;49.304;10.576;2023-05-07T01:23:12;7.10;;;6.50;;
11121;SDS011;5615;49.304;10.576;2023-05-07T01:25:39;7.23;;;6.60;;
11121;SDS011;5615;49.304;10.576;2023-05-07T01:28:06;8.07;;;6.90;;
11121;SDS011;5615;49.304;10.576;2023-05-07T01:30:32;8.20;;;7.10;;
11121;SDS011;5615;49.304;10.576;2023-05-07T01:33:01;8.90;;;7.53;;
11121;SDS011;5615;49.304;10.576;2023-05-07T01:35:32;7.97;;;7.17;;
11121;SDS011;5615;49.304;10.576;2023-05-07T01:38:03;7.87;;;7.00;;
11121;SDS011;5615;49.304;10.576;2023-05-07T01:40:32;8.17;;;7.10;;
11121;SDS011;5615;49.304;10.576;2023-05-07T01:43:00;9.57;;;7.63;;
11121;SDS011;5615;49.304;10.576;2023-05-07T01:45:28;9.03;;;8.13;;
11121;SDS011;5615;49.304;10.576;2023-05-07T01:47:56;8.80;;;7.63;;
11121;SDS011;5615;49.304;10.576;2023-05-07T01:50:23;8.87;;;7.63;;
11121;SDS011;5615;49.304;10.576;2023-05-07T01:52:51;9.43;;;8.07;;
11121;SDS011;5615;49.304;10.576;2023-05-07T01:55:18;8.93;;;8.13;;
11121;SDS011;5615;49.304;10.576;2023-05-07T01:57:45;9.27;;;8.20;;
11121;SDS011;5615;49.304;10.576;2023-05-07T02:00:12;9.40;;;8.60;;
11121;SDS011;5615;49.304;10.576;2023-05-07T02:02:39;10.33;;;8.80;;
11121;SDS011;5615;49.304;10.576;2023-05-07T02:05:06;8.93;;;8.00;;
11121;SDS011;5615;49.304;10.576;2023-05-07T02:07:33;10.83;;;7.83;;
11121;SDS011;5615;49.304;10.576;2023-05-07T02:09:59;8.77;;;7.97;;
11121;SDS011;5615;49.304;10.576;2023-05-07T02:12:26;9.67;;;7.87;;
11121;SDS011;5615;49.304;10.576;2023-05-07T02:14:54;9.40;;;8.50;;
11121;SDS011;5615;49.304;10.576;2023-05-07T02:17:21;8.30;;;7.40;;
11121;SDS011;5615;49.304;10.576;2023-05-07T02:19:47;9.13;;;8.33;;
11121;SDS011;5615;49.304;10.576;2023-05-07T02:22:14;8.97;;;8.07;;
11121;SDS011;5615;49.304;10.576;2023-05-07T02:24:40;9.20;;;7.87;;
11121;SDS011;5615;49.304;10.576;2023-05-07T02:27:07;9.27;;;7.57;;
11121;SDS011;5615;49.304;10.576;2023-05-07T02:29:33;8.83;;;7.93;;
11121;SDS011;5615;49.304;10.576;2023-05-07T02:32:01;9.20;;;8.30;;
11121;SDS011;5615;49.304;10.576;2023-05-07T02:34:28;7.40;;;6.57;;
11121;SDS011;5615;49.304;10.576;2023-05-07T02:36:55;10.57;;;7.97;;
11121;SDS011;5615;49.304;10.576;2023-05-07T02:39:21;8.30;;;7.40;;
11121;SDS011;5615;49.304;10.576;2023-05-07T02:41:48;8.17;;;7.47;;
11121;SDS011;5615;49.304;10.576;2023-05-07T02:44:15;8.10;;;7.30;;
11121;SDS011;5615;49.304;10.576;2023-05-07T02:46:41;7.73;;;7.03;;
11121;SDS011;5615;49.304;10.576;2023-05-07T02:49:09;7.97;;;7.27;;
11121;SDS011;5615;49.304;10.576;2023-05-07T02:51:36;8.77;;;7.47;;
11121;SDS011;5615;49.304;10.576;2023-05-07T02:54:02;8.83;;;7.53;;
11121;SDS011;5615;49.304;10.576;2023-05-07T02:56:29;12.20;;;9.10;;
11121;SDS011;5615;49.304;10.576;2023-05-07T02:58:56;9.97;;;9.10;;
11121;SDS011;5615;49.304;10.576;2023-05-07T03:01:22;12.70;;;9.17;;
11121;SDS011;5615;49.304;10.576;2023-05-07T03:03:49;13.70;;;9.83;;
11121;SDS011;5615;49.304;10.576;2023-05-07T03:06:17;13.33;;;10.43;;
11121;SDS011;5615;49.304;10.576;2023-05-07T03:08:44;11.50;;;10.27;;
11121;SDS011;5615;49.304;10.576;2023-05-07T03:11:11;14.30;;;11.17;;
11121;SDS011;5615;49.304;10.576;2023-05-07T03:13:37;14.10;;;10.83;;
11121;SDS011;5615;49.304;10.576;2023-05-07T03:16:04;12.77;;;10.47;;
11121;SDS011;5615;49.304;10.576;2023-05-07T03:18:31;12.20;;;10.60;;
11121;SDS011;5615;49.304;10.576;2023-05-07T03:20:58;11.40;;;8.93;;
11121;SDS011;5615;49.304;10.576;2023-05-07T03:23:26;11.77;;;9.60;;
11121;SDS011;5615;49.304;10.576;2023-05-07T03:25:52;10.73;;;9.63;;
11121;SDS011;5615;49.304;10.576;2023-05-07T03:28:19;12.73;;;10.33;;
11121;SDS011;5615;49.304;10.576;2023-05-07T03:30:46;11.47;;;10.17;;
11121;SDS011;5615;49.304;10.576;2023-05-07T03:33:12;10.93;;;8.53;;
11121;SDS011;5615;49.304;10.576;2023-05-07T03:35:39;10.77;;;8.80;;
11121;SDS011;5615;49.304;10.576;2023-05-07T03:38:06;11.10;;;8.30;;
11121;SDS011;5615;49.304;10.576;2023-05-07T03:40:34;10.90;;;8.07;;
11121;SDS011;5615;49.304;10.576;2023-05-07T03:43:01;10.80;;;7.90;;
11121;SDS011;5615;49.304;10.576;2023-05-07T03:45:27;8.43;;;7.63;;
11121;SDS011;5615;49.304;10.576;2023-05-07T03:47:54;9.10;;;8.13;;
11121;SDS011;5615;49.304;10.576;2023-05-07T03:50:21;8.97;;;8.00;;
11121;SDS011;5615;49.304;10.576;2023-05-07T03:52:47;8.60;;;7.73;;
11121;SDS011;5615;49.304;10.576;2023-05-07T03:55:14;8.73;;;7.43;;
11121;SDS011;5615;49.304;10.576;2023-05-07T03:57:42;7.93;;;7.13;;
11121;SDS011;5615;49.304;10.576;2023-05-07T04:00:09;7.63;;;6.90;;
11121;SDS011;5615;49.304;10.576;2023-05-07T04:02:36;8.20;;;7.30;;
11121;SDS011;5615;49.304;10.576;2023-05-07T04:05:03;8.00;;;7.27;;
11121;SDS011;5615;49.304;10.576;2023-05-07T04:07:30;12.10;;;7.80;;
11121;SDS011;5615;49.304;10.576;2023-05-07T04:09:56;10.23;;;7.30;;
11121;SDS011;5615;49.304;10.576;2023-05-07T04:12:23;9.10;;;8.00;;
11121;SDS011;5615;49.304;10.576;2023-05-07T04:14:51;10.10;;;7.47;;
11121;SDS011;5615;49.304;10.576;2023-05-07T04:17:17;8.20;;;7.40;;
11121;SDS011;5615;49.304;10.576;2023-05-07T04:19:44;8.80;;;7.97;;
11121;SDS011;5615;49.304;10.576;2023-05-07T04:22:11;8.93;;;7.03;;
11121;SDS011;5615;49.304;10.576;2023-05-07T04:24:38;7.87;;;6.80;;
11121;SDS011;5615;49.304;10.576;2023-05-07T04:27:05;9.03;;;7.10;;
11121;SDS011;5615;49.304;10.576;2023-05-07T04:29:31;8.07;;;7.27;;
11121;SDS011;5615;49.304;10.576;2023-05-07T04:31:59;7.67;;;6.57;;
11121;SDS011;5615;49.304;10.576;2023-05-07T04:34:26;8.73;;;7.83;;
11121;SDS011;5615;49.304;10.576;2023-05-07T04:36:53;8.07;;;7.20;;
11121;SDS011;5615;49.304;10.576;2023-05-07T04:39:19;9.47;;;7.87;;
11121;SDS011;5615;49.304;10.576;2023-05-07T04:41:46;8.93;;;7.47;;
11121;SDS011;5615;49.304;10.576;2023-05-07T04:44:12;9.23;;;7.87;;
11121;SDS011;5615;49.304;10.576;2023-05-07T04:46:39;9.70;;;7.80;;
11121;SDS011;5615;49.304;10.576;2023-05-07T04:49:07;9.20;;;8.20;;
11121;SDS011;5615;49.304;10.576;2023-05-07T04:51:34;10.33;;;8.20;;
11121;SDS011;5615;49.304;10.576;2023-05-07T04:54:00;8.90;;;8.10;;
11121;SDS011;5615;49.304;10.576;2023-05-07T04:56:27;8.63;;;7.67;;
11121;SDS011;5615;49.304;10.576;2023-05-07T04:58:54;8.60;;;7.80;;
11121;SDS011;5615;49.304;10.576;2023-05-07T05:01:21;8.63;;;7.73;;
11121;SDS011;5615;49.304;10.576;2023-05-07T05:03:47;8.70;;;7.90;;
11121;SDS011;5615;49.304;10.576;2023-05-07T05:06:15;8.43;;;7.43;;
11121;SDS011;5615;49.304;10.576;2023-05-07T05:08:42;9.13;;;7.03;;
11121;SDS011;5615;49.304;10.576;2023-05-07T05:11:09;9.53;;;7.37;;
11121;SDS011;5615;49.304;10.576;2023-05-07T05:13:35;7.73;;;6.93;;
11121;SDS011;5615;49.304;10.576;2023-05-07T05:16:02;8.57;;;7.77;;
11121;SDS011;5615;49.304;10.576;2023-05-07T05:18:29;8.40;;;7.17;;
11121;SDS011;5615;49.304;10.576;2023-05-07T05:20:55;8.80;;;7.20;;
11121;SDS011;5615;49.304;10.576;2023-05-07T05:23:23;9.40;;;7.60;;
11121;SDS011;5615;49.304;10.576;2023-05-07T05:25:50;8.17;;;7.37;;
11121;SDS011;5615;49.304;10.576;2023-05-07T05:28:21;8.67;;;7.77;;
11121;SDS011;5615;49.304;10.576;2023-05-07T05:30:48;7.63;;;6.93;;
11121;SDS011;5615;49.304;10.576;2023-05-07T05:33:14;8.83;;;7.23;;
11121;SDS011;5615;49.304;10.576;2023-05-07T05:35:41;7.87;;;7.13;;
11121;SDS011;5615;49.304;10.576;2023-05-07T05:38:08;7.93;;;7.13;;
11121;SDS011;5615;49.304;10.576;2023-05-07T05:40:36;8.20;;;7.40;;
11121;SDS011;5615;49.304;10.576;2023-05-07T05:43:02;8.70;;;7.83;;
11121;SDS011;5615;49.304;10.576;2023-05-07T05:45:29;9.53;;;6.93;;
11121;SDS011;5615;49.304;10.576;2023-05-07T05:47:56;7.87;;;6.97;;
11121;SDS011;5615;49.304;10.576;2023-05-07T05:50:22;6.97;;;6.37;;
11121;SDS011;5615;49.304;10.576;2023-05-07T05:52:49;8.13;;;6.40;;
11121;SDS011;5615;49.304;10.576;2023-05-07T05:55:16;7.07;;;6.00;;
11121;SDS011;5615;49.304;10.576;2023-05-07T05:57:44;7.55;;;6.78;;
11121;SDS011;5615;49.304;10.576;2023-05-07T06:00:11;6.97;;;6.37;;
11121;SDS011;5615;49.304;10.576;2023-05-07T06:02:38;8.95;;;6.47;;
11121;SDS011;5615;49.304;10.576;2023-05-07T06:05:05;7.32;;;6.63;;
11121;SDS011;5615;49.304;10.576;2023-05-07T06:07:32;8.05;;;6.55;;
11121;SDS011;5615;49.304;10.576;2023-05-07T06:09:59;7.85;;;7.15;;
11121;SDS011;5615;49.304;10.576;2023-05-07T06:12:26;7.65;;;6.43;;
11121;SDS011;5615;49.304;10.576;2023-05-07T06:14:54;7.80;;;6.93;;
11121;SDS011;5615;49.304;10.576;2023-05-07T06:17:21;7.40;;;6.70;;
11121;SDS011;5615;49.304;10.576;2023-05-07T06:19:47;7.40;;;6.60;;
11121;SDS011;5615;49.304;10.576;2023-05-07T06:22:14;8.10;;;7.30;;
11121;SDS011;5615;49.304;10.576;2023-05-07T06:24:40;7.82;;;7.10;;
11121;SDS011;5615;49.304;10.576;2023-05-07T06:27:07;8.50;;;7.60;;
11121;SDS011;5615;49.304;10.576;2023-05-07T06:29:34;9.55;;;8.68;;
11121;SDS011;5615;49.304;10.576;2023-05-07T06:32:08;7.68;;;6.82;;
11121;SDS011;5615;49.304;10.576;2023-05-07T06:34:35;7.75;;;7.05;;
11121;SDS011;5615;49.304;10.576;2023-05-07T06:37:02;8.00;;;7.30;;
11121;SDS011;5615;49.304;10.576;2023-05-07T06:39:29;7.93;;;7.03;;
11121;SDS011;5615;49.304;10.576;2023-05-07T06:41:56;7.47;;;6.88;;
11121;SDS011;5615;49.304;10.576;2023-05-07T06:44:22;7.47;;;6.88;;
11121;SDS011;5615;49.304;10.576;2023-05-07T06:46:49;8.10;;;7.40;;
11121;SDS011;5615;49.304;10.576;2023-05-07T06:49:17;8.50;;;7.10;;
11121;SDS011;5615;49.304;10.576;2023-05-07T06:51:44;10.68;;;7.03;;
11121;SDS011;5615;49.304;10.576;2023-05-07T06:54:10;7.95;;;7.15;;
11121;SDS011;5615;49.304;10.576;2023-05-07T06:56:37;7.88;;;7.22;;
11121;SDS011;5615;49.304;10.576;2023-05-07T06:59:04;8.20;;;7.38;;
11121;SDS011;5615;49.304;10.576;2023-05-07T07:01:30;8.20;;;7.40;;
11121;SDS011;5615;49.304;10.576;2023-05-07T07:03:57;8.20;;;7.50;;
11121;SDS011;5615;49.304;10.576;2023-05-07T07:06:25;8.35;;;7.55;;
11121;SDS011;5615;49.304;10.576;2023-05-07T07:08:51;8.85;;;8.05;;
11121;SDS011;5615;49.304;10.576;2023-05-07T07:11:18;8.48;;;7.70;;
11121;SDS011;5615;49.304;10.576;2023-05-07T07:13:45;8.20;;;7.40;;
11121;SDS011;5615;49.304;10.576;2023-05-07T07:16:12;10.75;;;7.75;;
11121;SDS011;5615;49.304;10.576;2023-05-07T07:18:38;8.07;;;7.00;;
11121;SDS011;5615;49.304;10.576;2023-05-07T07:21:05;8.10;;;7.30;;
11121;SDS011;5615;49.304;10.576;2023-05-07T07:23:33;9.02;;;7.60;;
11121;SDS011;5615;49.304;10.576;2023-05-07T07:26:00;7.07;;;6.47;;
11121;SDS011;5615;49.304;10.576;2023-05-07T07:28:26;7.30;;;6.70;;
11121;SDS011;5615;49.304;10.576;2023-05-07T07:30:53;10.23;;;7.75;;
11121;SDS011;5615;49.304;10.576;2023-05-07T07:33:19;8.30;;;7.28;;
11121;SDS011;5615;49.304;10.576;2023-05-07T07:35:46;7.75;;;7.05;;
11121;SDS011;5615;49.304;10.576;2023-05-07T07:38:13;9.80;;;7.40;;
11121;SDS011;5615;49.304;10.576;2023-05-07T07:40:41;8.23;;;7.43;;
11121;SDS011;5615;49.304;10.576;2023-05-07T07:43:08;9.30;;;7.93;;
11121;SDS011;5615;49.304;10.576;2023-05-07T07:45:35;8.38;;;7.57;;
11121;SDS011;5615;49.304;10.576;2023-05-07T07:48:02;8.43;;;7.63;;
11121;SDS011;5615;49.304;10.576;2023-05-07T07:50:29;10.02;;;8.73;;
11121;SDS011;5615;49.304;10.576;2023-05-07T07:52:56;9.18;;;8.45;;
11121;SDS011;5615;49.304;10.576;2023-05-07T07:55:22;9.88;;;8.98;;
11121;SDS011;5615;49.304;10.576;2023-05-07T07:57:50;9.57;;;8.77;;
11121;SDS011;5615;49.304;10.576;2023-05-07T08:00:17;10.55;;;9.30;;
11121;SDS011;5615;49.304;10.576;2023-05-07T08:02:44;9.95;;;8.95;;
11121;SDS011;5615;49.304;10.576;2023-05-07T08:05:10;9.82;;;9.00;;
11121;SDS011;5615;49.304;10.576;2023-05-07T08:07:37;9.27;;;8.48;;
11121;SDS011;5615;49.304;10.576;2023-05-07T08:10:04;9.77;;;8.98;;
11121;SDS011;5615;49.304;10.576;2023-05-07T08:12:31;10.15;;;9.15;;
11121;SDS011;5615;49.304;10.576;2023-05-07T08:14:59;9.85;;;8.88;;
11121;SDS011;5615;49.304;10.576;2023-05-07T08:17:25;9.40;;;8.60;;
11121;SDS011;5615;49.304;10.576;2023-05-07T08:19:52;9.95;;;8.75;;
11121;SDS011;5615;49.304;10.576;2023-05-07T08:22:18;10.10;;;9.10;;
11121;SDS011;5615;49.304;10.576;2023-05-07T08:24:46;9.13;;;8.25;;
11121;SDS011;5615;49.304;10.576;2023-05-07T08:27:13;9.10;;;8.15;;
11121;SDS011;5615;49.304;10.576;2023-05-07T08:29:40;8.60;;;7.80;;
11121;SDS011;5615;49.304;10.576;2023-05-07T08:32:07;9.13;;;8.32;;
11121;SDS011;5615;49.304;10.576;2023-05-07T08:34:34;8.23;;;7.43;;
11121;SDS011;5615;49.304;10.576;2023-05-07T08:37:01;8.30;;;7.50;;
11121;SDS011;5615;49.304;10.576;2023-05-07T08:39:27;7.53;;;6.82;;
11121;SDS011;5615;49.304;10.576;2023-05-07T08:41:54;7.85;;;7.18;;
11121;SDS011;5615;49.304;10.576;2023-05-07T08:44:22;8.43;;;7.72;;
11121;SDS011;5615;49.304;10.576;2023-05-07T08:46:52;7.78;;;7.15;;
11121;SDS011;5615;49.304;10.576;2023-05-07T08:49:22;9.18;;;8.38;;
11121;SDS011;5615;49.304;10.576;2023-05-07T08:51:48;9.35;;;8.50;;
11121;SDS011;5615;49.304;10.576;2023-05-07T08:54:16;8.93;;;8.13;;
11121;SDS011;5615;49.304;10.576;2023-05-07T08:56:43;9.38;;;8.48;;
11121;SDS011;5615;49.304;10.576;2023-05-07T08:59:09;8.70;;;7.95;;
11121;SDS011;5615;49.304;10.576;2023-05-07T09:01:36;8.35;;;7.72;;
11121;SDS011;5615;49.304;10.576;2023-05-07T09:04:03;8.70;;;8.00;;
11121;SDS011;5615;49.304;10.576;2023-05-07T09:06:31;8.98;;;8.07;;
11121;SDS011;5615;49.304;10.576;2023-05-07T09:08:58;7.97;;;7.05;;
11121;SDS011;5615;49.304;10.576;2023-05-07T09:11:28;8.30;;;7.60;;
11121;SDS011;5615;49.304;10.576;2023-05-07T09:13:54;8.40;;;7.70;;
11121;SDS011;5615;49.304;10.576;2023-05-07T09:16:23;8.57;;;7.78;;
11121;SDS011;5615;49.304;10.576;2023-05-07T09:18:52;8.60;;;7.90;;
11121;SDS011;5615;49.304;10.576;2023-05-07T09:21:19;9.35;;;8.55;;
11121;SDS011;5615;49.304;10.576;2023-05-07T09:23:49;9.18;;;8.15;;
11121;SDS011;5615;49.304;10.576;2023-05-07T09:26:17;8.73;;;7.93;;
11121;SDS011;5615;49.304;10.576;2023-05-07T09:28:44;9.68;;;8.88;;
11121;SDS011;5615;49.304;10.576;2023-05-07T09:31:11;8.73;;;8.02;;
11121;SDS011;5615;49.304;10.576;2023-05-07T09:33:38;9.57;;;8.77;;
11121;SDS011;5615;49.304;10.576;2023-05-07T09:36:06;9.23;;;8.43;;
11121;SDS011;5615;49.304;10.576;2023-05-07T09:38:34;9.35;;;8.07;;
11121;SDS011;5615;49.304;10.576;2023-05-07T09:41:04;9.52;;;8.63;;
11121;SDS011;5615;49.304;10.576;2023-05-07T09:43:31;8.60;;;7.80;;
11121;SDS011;5615;49.304;10.576;2023-05-07T09:45:59;8.38;;;7.50;;
11121;SDS011;5615;49.304;10.576;2023-05-07T09:48:29;8.07;;;7.38;;
11121;SDS011;5615;49.304;10.576;2023-05-07T09:50:56;8.27;;;7.57;;
11121;SDS011;5615;49.304;10.576;2023-05-07T09:53:27;8.40;;;7.70;;
11121;SDS011;5615;49.304;10.576;2023-05-07T09:55:56;7.40;;;6.78;;
11121;SDS011;5615;49.304;10.576;2023-05-07T09:58:24;6.63;;;6.00;;
11121;SDS011;5615;49.304;10.576;2023-05-07T10:00:52;10.20;;;6.75;;
11121;SDS011;5615;49.304;10.576;2023-05-07T10:03:19;7.28;;;6.57;;
11121;SDS011;5615;49.304;10.576;2023-05-07T10:05:47;6.82;;;6.13;;
11121;SDS011;5615;49.304;10.576;2023-05-07T10:08:15;7.07;;;6.05;;
11121;SDS011;5615;49.304;10.576;2023-05-07T10:10:42;6.38;;;5.78;;
11121;SDS011;5615;49.304;10.576;2023-05-07T10:13:09;6.25;;;5.72;;
11121;SDS011;5615;49.304;10.576;2023-05-07T10:15:37;6.20;;;5.70;;
11121;SDS011;5615;49.304;10.576;2023-05-07T10:18:04;6.88;;;6.30;;
11121;SDS011;5615;49.304;10.576;2023-05-07T10:20:33;6.10;;;5.57;;
11121;SDS011;5615;49.304;10.576;2023-05-07T10:23:00;6.18;;;5.55;;
11121;SDS011;5615;49.304;10.576;2023-05-07T10:25:30;6.53;;;5.93;;
11121;SDS011;5615;49.304;10.576;2023-05-07T10:27:59;8.57;;;5.40;;
11121;SDS011;5615;49.304;10.576;2023-05-07T10:30:30;5.53;;;5.13;;
11121;SDS011;5615;49.304;10.576;2023-05-07T10:33:06;4.88;;;4.15;;
11121;SDS011;5615;49.304;10.576;2023-05-07T10:35:37;4.43;;;4.03;;
11121;SDS011;5615;49.304;10.576;2023-05-07T10:38:06;4.70;;;4.30;;
11121;SDS011;5615;49.304;10.576;2023-05-07T10:40:34;4.40;;;4.00;;
11121;SDS011;5615;49.304;10.576;2023-05-07T10:43:01;3.72;;;3.42;;
11121;SDS011;5615;49.304;10.576;2023-05-07T10:45:29;4.50;;;2.95;;
11121;SDS011;5615;49.304;10.576;2023-05-07T10:48:07;3.67;;;3.38;;
11121;SDS011;5615;49.304;10.576;2023-05-07T10:50:35;3.40;;;3.10;;
11121;SDS011;5615;49.304;10.576;2023-05-07T10:53:21;3.78;;;3.47;;
11121;SDS011;5615;49.304;10.576;2023-05-07T10:58:49;3.25;;;2.95;;
11121;SDS011;5615;49.304;10.576;2023-05-07T11:01:17;3.95;;;3.58;;
11121;SDS011;5615;49.304;10.576;2023-05-07T11:04:16;4.85;;;3.28;;
11121;SDS011;5615;49.304;10.576;2023-05-07T11:09:55;4.20;;;2.90;;
11121;SDS011;5615;49.304;10.576;2023-05-07T11:12:47;5.28;;;3.20;;
11121;SDS011;5615;49.304;10.576;2023-05-07T11:15:15;3.58;;;3.22;;
11121;SDS011;5615;49.304;10.576;2023-05-07T11:18:08;4.35;;;3.88;;
11121;SDS011;5615;49.304;10.576;2023-05-07T11:20:50;3.10;;;2.80;;
11121;SDS011;5615;49.304;10.576;2023-05-07T11:26:44;4.22;;;3.08;;
11121;SDS011;5615;49.304;10.576;2023-05-07T11:29:12;4.07;;;3.00;;
11121;SDS011;5615;49.304;10.576;2023-05-07T11:31:40;3.13;;;2.25;;
11121;SDS011;5615;49.304;10.576;2023-05-07T11:34:07;1.90;;;1.80;;
11121;SDS011;5615;49.304;10.576;2023-05-07T11:36:35;6.55;;;6.15;;
11121;SDS011;5615;49.304;10.576;2023-05-07T11:39:17;3.55;;;3.35;;
11121;SDS011;5615;49.304;10.576;2023-05-07T11:41:49;2.60;;;2.40;;
11121;SDS011;5615;49.304;10.576;2023-05-07T11:44:16;2.63;;;1.90;;
11121;SDS011;5615;49.304;10.576;2023-05-07T11:46:43;2.58;;;2.35;;
11121;SDS011;5615;49.304;10.576;2023-05-07T11:49:10;2.35;;;2.10;;
11121;SDS011;5615;49.304;10.576;2023-05-07T11:51:38;2.60;;;1.90;;
11121;SDS011;5615;49.304;10.576;2023-05-07T11:54:05;1.98;;;1.60;;
11121;SDS011;5615;49.304;10.576;2023-05-07T11:56:33;1.90;;;1.50;;
11121;SDS011;5615;49.304;10.576;2023-05-07T11:59:01;2.75;;;1.85;;
11121;SDS011;5615;49.304;10.576;2023-05-07T12:01:27;5.00;;;2.50;;
11121;SDS011;5615;49.304;10.576;2023-05-07T12:03:54;2.22;;;1.83;;
11121;SDS011;5615;49.304;10.576;2023-05-07T12:06:21;2.00;;;1.80;;
11121;SDS011;5615;49.304;10.576;2023-05-07T12:08:48;2.30;;;2.00;;
11121;SDS011;5615;49.304;10.576;2023-05-07T12:11:16;2.40;;;1.70;;
11121;SDS011;5615;49.304;10.576;2023-05-07T12:13:48;3.20;;;2.75;;
11121;SDS011;5615;49.304;10.576;2023-05-07T12:16:15;27.10;;;24.48;;
11121;SDS011;5615;49.304;10.576;2023-05-07T12:18:42;20.35;;;12.88;;
11121;SDS011;5615;49.304;10.576;2023-05-07T12:21:10;21.10;;;19.17;;
11121;SDS011;5615;49.304;10.576;2023-05-07T12:23:37;4.43;;;2.65;;
11121;SDS011;5615;49.304;10.576;2023-05-07T12:26:06;3.83;;;3.45;;
11121;SDS011;5615;49.304;10.576;2023-05-07T12:28:36;3.22;;;2.92;;
11121;SDS011;5615;49.304;10.576;2023-05-07T12:31:04;4.43;;;3.75;;
11121;SDS011;5615;49.304;10.576;2023-05-07T12:33:31;3.33;;;2.70;;
11121;SDS011;5615;49.304;10.576;2023-05-07T12:35:58;2.45;;;2.00;;
11121;SDS011;5615;49.304;10.576;2023-05-07T12:38:33;10.93;;;3.00;;
11121;SDS011;5615;49.304;10.576;2023-05-07T12:41:01;3.67;;;2.65;;
11121;SDS011;5615;49.304;10.576;2023-05-07T12:43:29;2.65;;;2.20;;
11121;SDS011;5615;49.304;10.576;2023-05-07T12:45:56;2.40;;;2.20;;
11121;SDS011;5615;49.304;10.576;2023-05-07T12:48:25;2.60;;;2.40;;
11121;SDS011;5615;49.304;10.576;2023-05-07T12:50:53;3.40;;;3.03;;
11121;SDS011;5615;49.304;10.576;2023-05-07T12:53:21;3.97;;;2.72;;
11121;SDS011;5615;49.304;10.576;2023-05-07T12:55:50;1.90;;;1.80;;
11121;SDS011;5615;49.304;10.576;2023-05-07T12:58:19;3.15;;;1.80;;
11121;SDS011;5615;49.304;10.576;2023-05-07T13:00:48;1.65;;;1.50;;
11121;SDS011;5615;49.304;10.576;2023-05-07T13:03:22;2.90;;;1.80;;
11121;SDS011;5615;49.304;10.576;2023-05-07T13:05:50;2.58;;;2.38;;
11121;SDS011;5615;49.304;10.576;2023-05-07T13:08:23;2.78;;;2.42;;
11121;SDS011;5615;49.304;10.576;2023-05-07T13:10:53;2.85;;;2.30;;
11121;SDS011;5615;49.304;10.576;2023-05-07T13:13:20;3.33;;;1.85;;
11121;SDS011;5615;49.304;10.576;2023-05-07T13:15:48;1.80;;;1.70;;
11121;SDS011;5615;49.304;10.576;2023-05-07T13:18:15;2.28;;;2.00;;
11121;SDS011;5615;49.304;10.576;2023-05-07T13:20:42;1.70;;;1.60;;
11121;SDS011;5615;49.304;10.576;2023-05-07T13:23:08;2.03;;;1.70;;
11121;SDS011;5615;49.304;10.576;2023-05-07T13:25:35;1.70;;;1.60;;
11121;SDS011;5615;49.304;10.576;2023-05-07T13:28:02;2.30;;;1.92;;
11121;SDS011;5615;49.304;10.576;2023-05-07T13:30:29;3.47;;;1.98;;
11121;SDS011;5615;49.304;10.576;2023-05-07T13:32:57;1.70;;;1.60;;
11121;SDS011;5615;49.304;10.576;2023-05-07T13:35:24;3.42;;;1.90;;
11121;SDS011;5615;49.304;10.576;2023-05-07T13:37:50;2.40;;;1.80;;
11121;SDS011;5615;49.304;10.576;2023-05-07T13:40:18;1.83;;;1.73;;
11121;SDS011;5615;49.304;10.576;2023-05-07T13:42:44;3.22;;;1.70;;
11121;SDS011;5615;49.304;10.576;2023-05-07T13:45:11;4.38;;;1.70;;
11121;SDS011;5615;49.304;10.576;2023-05-07T13:47:39;1.77;;;1.67;;
11121;SDS011;5615;49.304;10.576;2023-05-07T13:50:07;1.70;;;1.60;;
11121;SDS011;5615;49.304;10.576;2023-05-07T13:52:36;1.73;;;1.63;;
11121;SDS011;5615;49.304;10.576;2023-05-07T13:55:04;2.95;;;1.75;;
11121;SDS011;5615;49.304;10.576;2023-05-07T13:57:31;2.17;;;1.65;;
11121;SDS011;5615;49.304;10.576;2023-05-07T13:59:57;1.98;;;1.70;;
11121;SDS011;5615;49.304;10.576;2023-05-07T14:02:24;2.10;;;1.90;;
11121;SDS011;5615;49.304;10.576;2023-05-07T14:04:51;3.17;;;1.80;;
11121;SDS011;5615;49.304;10.576;2023-05-07T14:07:19;2.50;;;1.60;;
11121;SDS011;5615;49.304;10.576;2023-05-07T14:09:45;1.90;;;1.70;;
11121;SDS011;5615;49.304;10.576;2023-05-07T14:12:12;2.20;;;1.65;;
11121;SDS011;5615;49.304;10.576;2023-05-07T14:14:38;2.22;;;1.40;;
11121;SDS011;5615;49.304;10.576;2023-05-07T14:17:05;2.35;;;1.60;;
11121;SDS011;5615;49.304;10.576;2023-05-07T14:19:33;2.65;;;1.90;;
11121;SDS011;5615;49.304;10.576;2023-05-07T14:21:59;1.88;;;1.77;;
11121;SDS011;5615;49.304;10.576;2023-05-07T14:24:27;2.00;;;1.80;;
11121;SDS011;5615;49.304;10.576;2023-05-07T14:26:54;2.90;;;1.98;;
11121;SDS011;5615;49.304;10.576;2023-05-07T14:29:21;3.80;;;1.90;;
11121;SDS011;5615;49.304;10.576;2023-05-07T14:31:47;2.67;;;1.70;;
11121;SDS011;5615;49.304;10.576;2023-05-07T14:34:14;2.20;;;1.90;;
11121;SDS011;5615;49.304;10.576;2023-05-07T14:36:41;2.05;;;1.95;;
11121;SDS011;5615;49.304;10.576;2023-05-07T14:39:08;2.10;;;1.70;;
11121;SDS011;5615;49.304;10.576;2023-05-07T14:41:36;1.77;;;1.63;;
11121;SDS011;5615;49.304;10.576;2023-05-07T14:44:03;2.10;;;1.70;;
11121;SDS011;5615;49.304;10.576;2023-05-07T14:46:30;1.80;;;1.63;;
11121;SDS011;5615;49.304;10.576;2023-05-07T14:48:56;3.50;;;1.80;;
11121;SDS011;5615;49.304;10.576;2023-05-07T14:51:23;3.25;;;1.80;;
11121;SDS011;5615;49.304;10.576;2023-05-07T14:53:50;4.05;;;2.38;;
11121;SDS011;5615;49.304;10.576;2023-05-07T14:56:17;4.80;;;3.90;;
11121;SDS011;5615;49.304;10.576;2023-05-07T14:58:45;2.50;;;2.30;;